Flight Track Log - Related Links

Times and Time Zones

All times are in EDT time to prevent confusion due to time zone crossing. See the N430WC flight status page for this flight to view local times or setup timezone preferences in your user account.

Time Position Orientation Groundspeed Altitude Reporting Facility
EDT Latitude Longitude Course Direction KTS MPH feet Rate Location/Type
Fri 09:21:14 PM 34.4272 -119.8664 264° West 167 192 900  Level Los Angeles Center
Fri 09:21:56 PM 34.4228 -119.9147 264° West 203 234 3,100 3,070 Climbing Los Angeles Center
Fri 09:22:40 PM 34.4150 -119.9608 258° West 237 273 5,300 3,113 Climbing Los Angeles Center
Fri 09:23:42 PM 34.4081 -120.0478 264° West 252 290 8,600 3,484 Climbing Los Angeles Center
Fri 09:24:44 PM 34.4108 -120.1422 272° West 272 313 12,500 3,194 Climbing Los Angeles Center
Fri 09:25:46 PM 34.4878 -120.1814 337° Northwest 303 349 15,200 2,468 Climbing Los Angeles Center
Fri 09:26:48 PM 34.5972 -120.2019 351° North 339 390 17,600 1,984 Climbing Los Angeles Center
Fri 09:27:50 PM 34.7089 -120.2208 352° North 398 458 19,300 1,839 Climbing Los Angeles Center
Fri 09:28:52 PM 34.8225 -120.2419 351° North 417 480 21,400 2,274 Climbing Los Angeles Center
Fri 09:29:54 PM 34.9622 -120.2675 351° North 426 490 24,000 2,274 Climbing Los Angeles Center
Fri 09:30:56 PM 35.0808 -120.2897 351° North 432 497 26,100 1,887 Climbing Los Angeles Center
Fri 09:31:58 PM 35.2022 -120.3108 352° North 443 510 27,900 1,728 Climbing Los Angeles Center
Fri 09:33:01 PM 35.3258 -120.3347 351° North 448 516 29,700 1,584 Climbing Los Angeles Center
Fri 09:34:03 PM 35.4497 -120.3575 351° North 449 517 31,200 1,452 Climbing Los Angeles Center
Fri 09:35:05 PM 35.5753 -120.3825 351° North 453 521 32,700 1,663 Climbing Los Angeles Center
Fri 09:35:44 PM 35.6753 -120.4011 351° North 455 524 34,000 1,860 Climbing Oakland Center
Fri 09:36:45 PM 35.8003 -120.4250 351° North 455 524 35,800 1,770 Climbing Oakland Center
Fri 09:37:46 PM 35.9228 -120.4483 351° North 451 519 37,600 1,659 Climbing Oakland Center
Fri 09:38:48 PM 36.0433 -120.4706 352° North 443 510 39,200 1,171 Climbing Oakland Center
Fri 09:39:49 PM 36.1611 -120.4933 351° North 434 499 40,000 393 Climbing Oakland Center
Fri 09:40:50 PM 36.2856 -120.5156 352° North 444 511 40,000  Level Oakland Center
Fri 09:41:52 PM 36.4119 -120.5406 351° North 455 524 40,000  Level Oakland Center
Fri 09:42:53 PM 36.5633 -120.5700 351° North 458 527 40,000  Level Oakland Center
Fri 09:43:54 PM 36.6892 -120.5939 351° North 458 527 40,000  Level Oakland Center
Fri 09:44:55 PM 36.8153 -120.6192 351° North 459 528 40,000  Level Oakland Center
Fri 09:45:57 PM 36.9286 -120.6403 352° North 457 526 40,000  Level Oakland Center
Fri 09:46:58 PM 37.0803 -120.6697 351° North 458 527 40,000  Level Oakland Center
Fri 09:47:59 PM 37.2058 -120.6939 351° North 458 527 40,000  Level Oakland Center
Fri 09:49:01 PM 37.3333 -120.7200 351° North 458 527 40,000  Level Oakland Center
Fri 09:50:02 PM 37.4597 -120.7442 351° North 458 527 40,000  Level Oakland Center
Fri 09:51:03 PM 37.5856 -120.7672 352° North 458 527 40,000  Level Oakland Center
Fri 09:52:04 PM 37.7119 -120.7919 351° North 459 528 40,000  Level Oakland Center
Fri 09:53:06 PM 37.8381 -120.8186 351° North 459 528 40,000  Level Oakland Center
Fri 09:54:07 PM 37.9644 -120.8428 351° North 459 528 40,000  Level Oakland Center
Fri 09:55:08 PM 38.0914 -120.8678 351° North 460 529 40,000  Level Oakland Center
Fri 09:56:10 PM 38.2189 -120.8931 351° North 462 532 40,000  Level Oakland Center
Fri 09:57:12 PM 38.3683 -120.9231 351° North 458 527 40,000  Level Oakland Center
Fri 09:58:12 PM 38.4928 -120.9469 351° North 458 527 40,000  Level Oakland Center
Fri 09:59:14 PM 38.6169 -120.9700 352° North 458 527 40,000  Level Oakland Center
Fri 10:00:15 PM 38.7403 -120.9964 351° North 458 527 40,000  Level Oakland Center
Fri 10:01:16 PM 38.8633 -121.0219 351° North 456 525 40,000  Level Oakland Center
Fri 10:03:19 PM 39.1375 -121.0783 351° North 456 525 40,000  Level Oakland Center
Fri 10:04:20 PM 39.2631 -121.1047 351° North 457 526 40,000  Level Oakland Center
Fri 10:05:22 PM 39.3892 -121.1294 351° North 457 526 40,000  Level Oakland Center
Fri 10:06:23 PM 39.5144 -121.1561 351° North 457 526 40,000  Level Oakland Center
Fri 10:07:24 PM 39.6306 -121.1797 351° North 457 526 40,000  Level Oakland Center
Fri 10:08:25 PM 39.7811 -121.2106 351° North 458 527 40,000  Level Oakland Center
Fri 10:09:27 PM 39.9061 -121.2375 351° North 458 527 40,000  Level Oakland Center
Fri 10:10:28 PM 40.0319 -121.2644 351° North 458 527 40,000  Level Oakland Center
Fri 10:11:29 PM 40.1578 -121.2886 352° North 459 528 40,000  Level Oakland Center
Fri 10:12:30 PM 40.2808 -121.3169 350° North 455 524 40,000  Level Oakland Center
Fri 10:13:32 PM 40.4067 -121.3428 351° North 456 525 40,000  Level Oakland Center
Fri 10:14:33 PM 40.5292 -121.3697 351° North 450 518 40,000  Level Oakland Center
Fri 10:15:34 PM 40.6569 -121.3975 351° North 451 519 40,000  Level Oakland Center
Fri 10:16:36 PM 40.7814 -121.4247 351° North 452 520 40,000  Level Oakland Center
Fri 10:17:37 PM 40.9256 -121.4569 350° North 453 521 40,000  Level Oakland Center
Fri 10:18:38 PM 41.0492 -121.4844 350° North 453 521 40,000  Level Oakland Center
Fri 10:19:40 PM 41.1758 -121.5117 351° North 444 511 40,000  Level Oakland Center
Fri 10:20:41 PM 41.3000 -121.5394 350° North 454 522 40,000  Level Oakland Center
Fri 10:21:42 PM 41.4217 -121.5664 351° North 450 518 40,000  Level Oakland Center
Fri 10:22:44 PM 41.5431 -121.5942 350° North 447 514 40,000  Level Oakland Center
Fri 10:23:45 PM 41.6647 -121.6194 351° North 446 513 40,000  Level Oakland Center
Fri 10:25:02 PM 41.8339 -121.6567 351° North 442 509 40,000  Level Seattle Center
Fri 10:26:03 PM 41.9539 -121.6847 350° North 442 509 40,000  Level Seattle Center
Fri 10:27:04 PM 42.0733 -121.7089 351° North 443 510 40,000  Level Seattle Center
Fri 10:28:05 PM 42.1922 -121.7386 350° North 444 511 40,000  Level Seattle Center
Fri 10:29:06 PM 42.3081 -121.7792 345° North 441 507 40,000  Level Seattle Center
Fri 10:30:07 PM 42.4283 -121.8167 347° North 441 507 40,000  Level Seattle Center
Fri 10:31:08 PM 42.5433 -121.8556 346° North 434 499 40,000  Level Seattle Center
Fri 10:32:09 PM 42.6894 -121.8653 357° North 438 504 40,000 -344 Level Seattle Center
Fri 10:33:10 PM 42.8106 -121.8708 358° North 437 503 39,300 -984 Descending Seattle Center
Fri 10:34:11 PM 42.9294 -121.8967 351° North 436 502 38,000 -1,377 Descending Seattle Center
Fri 10:35:12 PM 43.0450 -121.9356 346° North 428 493 36,500 -1,672 Descending Seattle Center
Fri 10:36:13 PM 43.1611 -121.9686 348° North 427 491 34,600 -1,869 Descending Seattle Center
Fri 10:37:14 PM 43.2711 -122.0314 337° Northwest 432 497 32,700 -1,770 Descending Seattle Center
Fri 10:38:15 PM 43.3686 -122.1036 332° Northwest 429 494 31,000 -1,770 Descending Seattle Center
Fri 10:39:16 PM 43.4753 -122.1853 331° Northwest 438 504 29,100 -2,066 Descending Seattle Center
Fri 10:40:17 PM 43.6142 -122.2550 340° North 452 520 26,800 -2,066 Descending Seattle Center
Fri 10:41:18 PM 43.7319 -122.2953 346° North 441 507 24,900 -1,918 Descending Seattle Center
Fri 10:42:19 PM 43.8478 -122.3297 348° North 431 496 22,900 -1,869 Descending Seattle Center
Fri 10:43:20 PM 43.9608 -122.3656 347° North 423 487 21,100 -1,770 Descending Seattle Center
Fri 10:44:21 PM 44.0706 -122.4014 347° North 411 473 19,300 -1,721 Descending Seattle Center
Fri 10:45:22 PM 44.1781 -122.4358 347° North 404 465 17,600 -1,672 Descending Seattle Center
Fri 10:46:23 PM 44.2806 -122.4703 346° North 386 444 15,900 -1,623 Descending Seattle Center
Fri 10:47:24 PM 44.3792 -122.5014 347° North 371 427 14,300 -1,475 Descending Seattle Center
Fri 10:48:25 PM 44.4669 -122.5317 346° North 329 379 12,900 -1,328 Descending Seattle Center
Fri 10:49:26 PM 44.5469 -122.5572 347° North 300 345 11,600 -1,388 Descending Seattle Center
Fri 10:50:26 PM 44.6358 -122.5867 347° North 300 345 10,100 -1,339 Descending Seattle Center
Fri 10:51:27 PM 44.7108 -122.6111 347° North 286 329 8,900 -1,167 Descending Seattle Center
Fri 10:52:14 PM 44.7683 -122.6294 347° North 243 280 8,000 -1,082 Descending Seattle Center
Fri 10:52:28 PM 44.7772 -122.6331 344° North 258 297 7,800 -1,000 Descending Seattle Center
Fri 10:52:44 PM 44.7969 -122.6422 342° North 235 270 7,500 -984 Descending Seattle Center
Fri 10:53:29 PM 44.8389 -122.6533 349° North 239 275 6,800 -984 Descending Seattle Center
Fri 10:53:45 PM 44.8597 -122.6628 342° North 225 259 6,500 -984 Descending Seattle Center
Fri 10:54:30 PM 44.8972 -122.6742 348° North 224 258 5,800 -982 Descending Seattle Center
Fri 10:54:40 PM 44.9117 -122.6844 333° Northwest 218 251 5,600 -393 Descending Seattle Center
Fri 10:55:31 PM 44.9647 -122.6958 351° North 220 253 5,400 -235 Descending Seattle Center
Fri 10:57:00 PM 45.1311 -122.7191 344° North  Level FlightAware Approximate
Fri 11:04:00 PM 45.2333 -122.7667 341° North  Level FlightAware Approximate
Fri 11:05:00 PM 45.2471 -122.7701 341° North  Level Estimated
Fri 11:06:00 PM 45.2471 -122.7701 341° North  Level Estimated
Fri 11:07:00 PM 45.2471 -122.7701 341° North  Level Estimated
Fri 11:08:00 PM 45.2471 -122.7701 341° North  Level Estimated
Fri 11:09:00 PM 45.2471 -122.7701 341° North  Level Estimated
Fri 11:10:00 PM 45.2471 -122.7701 341° North  Level Estimated
Fri 11:11:00 PM 45.2471 -122.7701 341° North  Level Estimated
Fri 11:12:00 PM 45.2471 -122.7701 341° North  Level Estimated
Fri 11:13:00 PM 45.2471 -122.7701 341° North  Level Estimated
Fri 11:14:00 PM 45.2471 -122.7701 341° North  Level Estimated
Fri 11:15:00 PM 45.2471 -122.7701 341° North  Level Estimated
Fri 11:16:00 PM 45.2471 -122.7701 341° North  Level Estimated

Login

Don't have an account? Register now (free) for customized features, flight alerts, and more!